Edchera, Western Sahara
Current Conditions -  °F | °C
As of 11:00 PM on Wednesday 22 Oct 2014 (Local Time) from GMML Reporting Station
Clear Clear  
Wind Chill: 72°   Ceiling: Unl
Heat Index: 72°   Visibility: 5mi
Dew Point: 68°   Wind: 14mph
Humidity: 88%   Direction: 40°NE
Pressure: 30.06"   Gusts: NA
Location:  27.1°N, 13.3°W
Report Text: GMML 222300Z 04012KT 8000 NSC 22/20 Q1018 NOSIG
Loading
Personal Weather Stations






























Interactive Weather Map
Tropical Storm Tracking
New forecast layout! Learn more

10-Day Weather Forecast

Advertisements
Track Severe Weather on mobile